createdAt,value
2023-01-10T00:00:43.861Z,5.15
2023-01-10T00:03:29.491Z,5.06
2023-01-10T00:05:59.220Z,5.05
2023-01-10T00:08:28.760Z,5.05
2023-01-10T00:10:58.429Z,5.11
2023-01-10T00:13:26.752Z,5.19
2023-01-10T00:15:57.954Z,5.25
2023-01-10T00:18:28.754Z,5.28
2023-01-10T00:21:00.686Z,5.22
2023-01-10T00:23:30.039Z,5.20
2023-01-10T00:25:59.720Z,5.25
2023-01-10T00:28:29.078Z,5.29
2023-01-10T00:31:01.437Z,5.34
2023-01-10T00:33:32.893Z,5.27
2023-01-10T00:36:03.511Z,5.33
2023-01-10T00:38:34.489Z,5.38
2023-01-10T00:41:24.751Z,5.39
2023-01-10T00:43:58.929Z,5.42
2023-01-10T00:46:28.929Z,5.41
2023-01-10T00:49:00.348Z,5.42
2023-01-10T00:51:30.027Z,5.42
2023-01-10T00:53:59.663Z,5.49
2023-01-10T00:56:29.249Z,5.53
2023-01-10T00:58:58.550Z,5.56
2023-01-10T01:01:28.266Z,5.59
2023-01-10T01:03:59.529Z,5.58
2023-01-10T01:06:29.497Z,5.61
2023-01-10T01:08:58.911Z,5.62
2023-01-10T01:11:28.602Z,5.62
2023-01-10T01:13:57.929Z,5.64
2023-01-10T01:16:27.526Z,5.65
2023-01-10T01:18:56.839Z,5.66
2023-01-10T01:21:28.516Z,5.65
2023-01-10T01:23:58.084Z,5.64
2023-01-10T01:26:28.262Z,5.64
2023-01-10T01:28:57.967Z,5.64
2023-01-10T01:31:28.020Z,5.65
2023-01-10T01:33:57.452Z,5.65
2023-01-10T01:36:28.537Z,5.63
2023-01-10T01:38:57.908Z,5.59
2023-01-10T01:41:45.099Z,5.57
2023-01-10T01:44:18.209Z,5.54
2023-01-10T01:46:51.736Z,5.52
2023-01-10T01:49:25.411Z,5.52
2023-01-10T01:52:00.819Z,5.53
2023-01-10T01:54:31.307Z,5.52
2023-01-10T01:57:07.431Z,5.52
2023-01-10T01:59:41.089Z,5.46
2023-01-10T02:02:14.821Z,5.46
2023-01-10T02:04:48.446Z,5.44
2023-01-10T02:07:20.021Z,5.46
2023-01-10T02:09:52.728Z,5.49
2023-01-10T02:12:22.618Z,5.50
2023-01-10T02:14:53.349Z,5.49
2023-01-10T02:17:22.980Z,5.49
2023-01-10T02:19:55.788Z,5.49
2023-01-10T02:23:00.951Z,5.47
2023-01-10T02:26:20.872Z,5.44
2023-01-10T02:29:16.978Z,5.43
2023-01-10T02:32:35.482Z,5.43
2023-01-10T02:35:21.583Z,5.43
2023-01-10T02:38:01.344Z,5.45
2023-01-10T02:40:46.149Z,5.43
2023-01-10T02:43:19.430Z,5.42
2023-01-10T02:45:55.609Z,5.41
2023-01-10T02:48:26.384Z,5.36
2023-01-10T02:51:02.915Z,5.32
2023-01-10T02:53:38.478Z,5.36
2023-01-10T02:56:38.899Z,5.36
2023-01-10T02:59:38.277Z,5.38
2023-01-10T03:02:19.105Z,5.38
2023-01-10T03:04:58.224Z,5.41
2023-01-10T03:07:35.726Z,5.40
2023-01-10T03:10:10.328Z,5.38
2023-01-10T03:12:47.253Z,5.37
2023-01-10T03:15:20.429Z,5.35
2023-01-10T03:17:55.992Z,5.35
2023-01-10T03:20:28.418Z,5.32
2023-01-10T03:22:58.591Z,5.32
2023-01-10T03:25:34.273Z,5.30
2023-01-10T03:28:10.403Z,5.30
2023-01-10T03:30:46.541Z,5.30
2023-01-10T03:33:20.088Z,5.30
2023-01-10T03:36:03.619Z,5.27
2023-01-10T03:38:43.521Z,5.29
2023-01-10T03:41:18.172Z,5.28
2023-01-10T03:44:10.580Z,5.28
2023-01-10T03:46:47.973Z,5.23
2023-01-10T03:49:19.783Z,5.24
2023-01-10T03:51:51.373Z,5.24
2023-01-10T03:54:21.320Z,5.26
2023-01-10T03:56:52.391Z,5.23
2023-01-10T03:59:25.849Z,5.21
2023-01-10T04:01:56.021Z,5.19
2023-01-10T04:04:25.892Z,5.20
2023-01-10T04:06:56.593Z,5.18
2023-01-10T04:09:26.286Z,5.15
2023-01-10T04:11:55.618Z,5.16
2023-01-10T04:14:25.221Z,5.15
2023-01-10T04:16:54.623Z,5.15
2023-01-10T04:19:24.184Z,5.14
2023-01-10T04:21:53.596Z,5.14
2023-01-10T04:24:24.705Z,5.11
2023-01-10T04:26:53.995Z,5.08
2023-01-10T04:29:23.593Z,5.06
2023-01-10T04:31:53.223Z,5.04
2023-01-10T04:34:22.966Z,4.98
2023-01-10T04:36:52.402Z,5.06
2023-01-10T04:39:23.484Z,5.08
2023-01-10T04:41:52.865Z,5.09
2023-01-10T04:44:22.780Z,5.10
2023-01-10T04:46:52.638Z,5.10
2023-01-10T04:49:22.429Z,5.11
2023-01-10T04:51:51.771Z,5.09
2023-01-10T04:54:24.034Z,5.11
2023-01-10T04:56:53.511Z,5.09
2023-01-10T04:59:23.361Z,5.10
2023-01-10T05:01:52.759Z,5.11
2023-01-10T05:04:22.400Z,5.08
2023-01-10T05:06:51.871Z,5.09
2023-01-10T05:09:21.523Z,5.12
2023-01-10T05:14:22.095Z,5.07
2023-01-10T05:16:51.484Z,5.09
2023-01-10T05:19:21.127Z,5.09
2023-01-10T05:21:52.257Z,5.09
2023-01-10T05:24:22.480Z,5.11
2023-01-10T05:26:53.245Z,5.11
2023-01-10T05:29:22.991Z,5.04
2023-01-10T05:31:54.113Z,5.04
2023-01-10T05:34:23.892Z,5.04
2023-01-10T05:36:53.183Z,5.04
2023-01-10T05:39:22.900Z,5.00
2023-01-10T05:41:53.750Z,4.92
2023-01-10T05:44:23.711Z,4.95
2023-01-10T05:46:53.123Z,4.99
2023-01-10T05:49:22.681Z,4.96
2023-01-10T05:51:52.253Z,4.97
2023-01-10T05:54:21.910Z,4.97
2023-01-10T05:56:53.001Z,5.00
2023-01-10T05:59:29.830Z,5.01
2023-01-10T06:01:59.268Z,5.03
2023-01-10T06:04:30.389Z,5.06
2023-01-10T06:07:00.017Z,5.05
2023-01-10T06:09:29.593Z,4.99
2023-01-10T06:12:00.474Z,4.99
2023-01-10T06:14:30.159Z,5.01
2023-01-10T06:16:59.437Z,4.96
2023-01-10T06:19:29.143Z,5.01
2023-01-10T06:21:58.411Z,5.03
2023-01-10T06:24:28.139Z,5.03
2023-01-10T06:26:57.482Z,5.01
2023-01-10T06:29:30.130Z,5.03
2023-01-10T06:32:00.428Z,5.01
2023-01-10T06:34:30.093Z,5.03
2023-01-10T06:36:59.591Z,5.00
2023-01-10T06:39:29.426Z,4.97
2023-01-10T06:41:59.129Z,4.95
2023-01-10T06:44:30.251Z,4.97
2023-01-10T06:46:59.605Z,4.99
2023-01-10T06:49:29.988Z,4.99
2023-01-10T06:51:59.321Z,4.97
2023-01-10T06:54:28.914Z,4.97
2023-01-10T06:56:58.293Z,4.95
2023-01-10T06:59:29.344Z,4.96
2023-01-10T07:01:58.809Z,4.99
2023-01-10T07:04:28.472Z,4.92
2023-01-10T07:06:57.790Z,4.93
2023-01-10T07:09:27.368Z,4.87
2023-01-10T07:11:56.848Z,4.89
2023-01-10T07:14:26.514Z,4.86
2023-01-10T07:16:57.256Z,4.88
2023-01-10T07:19:27.014Z,4.89
2023-01-10T07:21:56.559Z,4.82
2023-01-10T07:24:27.010Z,4.73
2023-01-10T07:26:57.343Z,4.77
2023-01-10T07:29:27.020Z,4.71
2023-01-10T07:31:57.758Z,4.68
2023-01-10T07:34:27.430Z,4.70
2023-01-10T07:36:56.738Z,4.63
2023-01-10T07:39:26.427Z,4.62
2023-01-10T07:41:56.391Z,4.51
2023-01-10T07:44:26.056Z,4.49
2023-01-10T07:46:56.834Z,4.62
2023-01-10T07:49:26.451Z,4.62
2023-01-10T07:51:55.774Z,4.67
2023-01-10T07:54:25.566Z,4.72
2023-01-10T07:56:54.816Z,4.76
2023-01-10T07:59:24.463Z,4.70
2023-01-10T08:01:54.269Z,4.68
2023-01-10T08:04:25.074Z,4.72
2023-01-10T08:06:56.628Z,4.70
2023-01-10T08:09:26.377Z,4.71
2023-01-10T08:11:55.683Z,4.68
2023-01-10T08:14:25.513Z,4.67
2023-01-10T08:16:54.905Z,4.73
2023-01-10T08:19:26.060Z,4.64
2023-01-10T08:21:56.726Z,4.73
2023-01-10T08:24:26.437Z,4.76
2023-01-10T08:26:58.954Z,4.78
2023-01-10T08:29:28.917Z,4.76
2023-01-10T08:31:58.752Z,4.74
2023-01-10T08:34:29.978Z,4.63
2023-01-10T08:36:59.438Z,4.69
2023-01-10T08:39:31.593Z,4.72
2023-01-10T08:42:00.936Z,4.76
2023-01-10T08:44:30.497Z,4.77
2023-01-10T08:46:59.999Z,4.77
2023-01-10T08:49:31.129Z,4.77
2023-01-10T08:52:00.494Z,4.76
2023-01-10T08:54:30.186Z,4.72
2023-01-10T08:56:59.677Z,4.76
2023-01-10T08:59:29.322Z,4.77
2023-01-10T09:01:59.992Z,4.79
2023-01-10T09:04:33.064Z,4.80
2023-01-10T09:07:02.787Z,4.77
2023-01-10T09:09:32.535Z,4.66
2023-01-10T09:12:01.866Z,4.73
2023-01-10T09:14:31.964Z,4.75
2023-01-10T09:17:01.389Z,4.76
2023-01-10T09:19:32.401Z,4.76
2023-01-10T09:22:01.863Z,4.80
2023-01-10T09:24:31.493Z,4.79
2023-01-10T09:27:00.818Z,4.84
2023-01-10T09:29:30.446Z,4.82
2023-01-10T09:31:59.842Z,4.74
2023-01-10T09:34:29.579Z,4.76
2023-01-10T09:37:00.378Z,4.84
2023-01-10T09:39:30.051Z,4.85
2023-01-10T09:42:32.440Z,4.91
2023-01-10T09:45:12.039Z,4.91
2023-01-10T09:47:52.155Z,4.88
2023-01-10T09:50:30.016Z,4.98
2023-01-10T09:53:07.047Z,4.97
2023-01-10T09:55:39.911Z,4.89
2023-01-10T09:58:14.069Z,4.97
2023-01-10T10:00:48.212Z,4.98
2023-01-10T10:03:25.978Z,5.00
2023-01-10T10:06:03.688Z,5.06
2023-01-10T10:08:42.783Z,5.08
2023-01-10T10:11:38.076Z,5.08
2023-01-10T10:14:19.285Z,5.04
2023-01-10T10:17:07.709Z,5.05
2023-01-10T10:19:53.871Z,5.05
2023-01-10T10:22:37.655Z,5.04
2023-01-10T10:25:19.730Z,5.08
2023-01-10T10:28:04.332Z,5.17
2023-01-10T10:30:43.510Z,5.19
2023-01-10T10:33:35.207Z,5.24
2023-01-10T10:36:10.803Z,5.28
2023-01-10T10:38:44.985Z,5.30
2023-01-10T10:41:26.731Z,5.28
2023-01-10T10:44:04.008Z,5.29
2023-01-10T10:46:33.838Z,5.23
2023-01-10T10:49:18.508Z,5.30
2023-01-10T10:51:52.277Z,5.39
2023-01-10T10:54:23.101Z,5.41
2023-01-10T10:56:56.391Z,5.44
2023-01-10T10:59:26.154Z,5.48
2023-01-10T11:01:56.139Z,5.56
2023-01-10T11:04:26.964Z,5.60
2023-01-10T11:06:57.001Z,5.60
2023-01-10T11:09:29.880Z,5.66
2023-01-10T11:12:00.794Z,5.64
2023-01-10T11:14:46.067Z,5.72
2023-01-10T11:17:24.092Z,5.78
2023-01-10T11:20:01.844Z,5.79
2023-01-10T11:22:39.667Z,5.81
2023-01-10T11:25:17.328Z,5.83
2023-01-10T11:27:51.882Z,5.85
2023-01-10T11:30:24.626Z,5.94
2023-01-10T11:32:56.873Z,6.03
2023-01-10T11:35:29.912Z,6.11
2023-01-10T11:38:05.202Z,6.13
2023-01-10T11:40:38.024Z,6.14
2023-01-10T11:43:28.065Z,6.16
2023-01-10T11:46:02.477Z,6.18
2023-01-10T11:51:38.951Z,6.27
2023-01-10T11:54:13.623Z,6.31
2023-01-10T11:56:44.084Z,6.33
2023-01-10T11:59:18.896Z,6.32
2023-01-10T12:01:55.895Z,6.30
2023-01-10T12:04:27.528Z,6.37
2023-01-10T12:07:03.227Z,6.42
2023-01-10T12:09:42.424Z,6.56
2023-01-10T12:12:23.455Z,6.78
2023-01-10T12:14:56.678Z,6.93
2023-01-10T12:17:28.819Z,6.99
2023-01-10T12:20:01.434Z,6.95
2023-01-10T12:22:35.302Z,6.99
2023-01-10T12:25:16.520Z,6.98
2023-01-10T12:27:50.205Z,7.02
2023-01-10T12:30:30.715Z,7.05
2023-01-10T12:33:03.751Z,7.07
2023-01-10T12:35:42.254Z,7.03
2023-01-10T12:38:26.093Z,7.00
2023-01-10T12:40:59.940Z,7.00
2023-01-10T12:43:56.509Z,7.02
2023-01-10T12:47:05.681Z,7.05
2023-01-10T12:49:37.464Z,7.03
2023-01-10T12:52:12.968Z,7.00
2023-01-10T12:54:42.642Z,6.96
2023-01-10T12:57:27.482Z,6.83
2023-01-10T12:59:58.639Z,6.83
2023-01-10T13:02:35.994Z,6.85
2023-01-10T13:05:07.608Z,6.80
2023-01-10T13:07:39.165Z,6.66
2023-01-10T13:10:15.968Z,6.57
2023-01-10T13:12:48.652Z,6.56
2023-01-10T13:15:24.191Z,6.61
2023-01-10T13:17:57.820Z,6.66
2023-01-10T13:20:43.319Z,6.66
2023-01-10T13:23:23.317Z,6.57
2023-01-10T13:25:57.105Z,6.52
2023-01-10T13:28:28.534Z,6.47
2023-01-10T13:31:01.312Z,6.49
2023-01-10T13:33:36.102Z,6.47
2023-01-10T13:36:18.684Z,6.36
2023-01-10T13:38:52.651Z,6.39
2023-01-10T13:41:40.272Z,6.37
2023-01-10T13:44:12.727Z,6.36
2023-01-10T13:46:48.888Z,6.34
2023-01-10T13:49:45.185Z,6.39
2023-01-10T13:52:38.714Z,6.36
2023-01-10T13:55:30.120Z,6.38
2023-01-10T13:58:02.159Z,6.32
2023-01-10T14:01:18.273Z,6.34
2023-01-10T14:03:55.272Z,6.35
2023-01-10T14:06:43.085Z,6.39
2023-01-10T14:09:34.847Z,6.37
2023-01-10T14:12:07.027Z,6.32
2023-01-10T14:14:41.488Z,6.31
2023-01-10T14:17:16.710Z,6.31
2023-01-10T14:19:48.948Z,6.20
2023-01-10T14:22:31.089Z,6.22
2023-01-10T14:25:02.660Z,6.23
2023-01-10T14:27:43.448Z,6.27
2023-01-10T14:30:20.747Z,6.26
2023-01-10T14:32:52.614Z,6.25
2023-01-10T14:35:28.521Z,6.16
2023-01-10T14:38:02.986Z,6.13
2023-01-10T14:40:41.109Z,6.04
2023-01-10T14:43:16.456Z,6.03
2023-01-10T14:45:53.549Z,5.98
2023-01-10T14:48:31.691Z,5.85
2023-01-10T14:51:18.429Z,5.76
2023-01-10T14:53:55.984Z,5.70
2023-01-10T14:56:28.100Z,5.66
2023-01-10T14:58:57.664Z,5.68
2023-01-10T15:01:29.760Z,5.68
2023-01-10T15:04:02.765Z,5.74
2023-01-10T15:06:51.363Z,5.66
2023-01-10T15:09:22.108Z,5.62
2023-01-10T15:11:52.352Z,5.57
2023-01-10T15:14:23.556Z,5.55
2023-01-10T15:16:57.562Z,5.49
2023-01-10T15:19:29.283Z,5.50
2023-01-10T15:21:58.818Z,5.44
2023-01-10T15:24:34.281Z,5.52
2023-01-10T15:27:07.249Z,5.43
2023-01-10T15:29:37.683Z,5.32
2023-01-10T15:32:11.716Z,5.37
2023-01-10T15:34:42.347Z,5.37
2023-01-10T15:37:18.562Z,5.36
2023-01-10T15:39:49.637Z,5.40
2023-01-10T15:42:22.026Z,5.41
2023-01-10T15:44:55.831Z,5.38
2023-01-10T15:47:41.685Z,5.46
2023-01-10T15:50:23.033Z,5.43
2023-01-10T15:52:54.947Z,5.41
2023-01-10T15:55:48.070Z,5.40
2023-01-10T15:58:20.993Z,5.42
2023-01-10T16:00:52.542Z,5.46
2023-01-10T16:03:27.711Z,5.35
2023-01-10T16:05:59.843Z,5.37
2023-01-10T16:08:34.902Z,5.35
2023-01-10T16:11:09.893Z,5.30
2023-01-10T16:13:38.431Z,5.30
2023-01-10T16:16:19.428Z,5.33
2023-01-10T16:18:48.939Z,5.12
2023-01-10T16:21:19.832Z,5.11
2023-01-10T16:23:50.089Z,5.18
2023-01-10T16:26:20.756Z,5.13
2023-01-10T16:28:50.231Z,5.11
2023-01-10T16:31:19.602Z,5.07
2023-01-10T16:33:49.397Z,5.11
2023-01-10T16:36:20.963Z,5.13
2023-01-10T16:38:50.628Z,5.16
2023-01-10T16:41:38.368Z,5.26
2023-01-10T16:44:07.797Z,5.17
2023-01-10T16:46:36.834Z,5.24
2023-01-10T16:49:07.752Z,5.19
2023-01-10T16:51:41.280Z,5.27
2023-01-10T16:54:16.709Z,5.28
2023-01-10T16:56:47.966Z,5.35
2023-01-10T16:59:18.549Z,5.37
2023-01-10T17:01:50.305Z,5.29
2023-01-10T17:04:23.173Z,5.31
2023-01-10T17:06:52.472Z,5.36
2023-01-10T17:09:26.142Z,5.40
2023-01-10T17:12:02.255Z,5.37
2023-01-10T17:14:33.747Z,5.45
2023-01-10T17:17:03.821Z,5.40
2023-01-10T17:19:33.696Z,5.44
2023-01-10T17:22:02.755Z,5.52
2023-01-10T17:24:32.131Z,5.49
2023-01-10T17:27:02.762Z,5.53
2023-01-10T17:29:33.783Z,5.43
2023-01-10T17:32:03.106Z,5.48
2023-01-10T17:34:37.364Z,5.42
2023-01-10T17:37:07.170Z,5.44
2023-01-10T17:39:37.857Z,5.50
2023-01-10T17:42:08.850Z,5.53
2023-01-10T17:44:38.251Z,5.47
2023-01-10T17:47:07.275Z,5.47
2023-01-10T17:49:37.263Z,5.56
2023-01-10T17:52:06.526Z,5.56
2023-01-10T17:54:36.399Z,5.59
2023-01-10T17:57:08.255Z,5.62
2023-01-10T17:59:37.691Z,5.62
2023-01-10T18:02:07.814Z,5.66
2023-01-10T18:04:37.310Z,5.72
2023-01-10T18:07:07.095Z,5.64
2023-01-10T18:09:36.434Z,5.65
2023-01-10T18:12:05.919Z,5.65
2023-01-10T18:14:39.367Z,5.67
2023-01-10T18:17:11.015Z,5.63
2023-01-10T18:19:40.634Z,5.65
2023-01-10T18:22:24.836Z,5.59
2023-01-10T18:24:54.606Z,5.63
2023-01-10T18:27:25.127Z,5.63
2023-01-10T18:29:56.298Z,5.66
2023-01-10T18:32:26.002Z,5.59
2023-01-10T18:34:55.600Z,5.56
2023-01-10T18:37:24.833Z,5.61
2023-01-10T18:39:54.238Z,5.60
2023-01-10T18:42:23.252Z,5.66
2023-01-10T18:44:52.629Z,5.52
2023-01-10T18:47:23.136Z,5.44
2023-01-10T18:49:52.645Z,5.54
2023-01-10T18:52:22.066Z,5.58
2023-01-10T18:54:52.124Z,5.59
2023-01-10T18:57:21.802Z,5.59
2023-01-10T18:59:51.137Z,5.60
2023-01-10T19:02:20.410Z,5.56
2023-01-10T19:04:51.801Z,5.47
2023-01-10T19:07:21.271Z,5.52
2023-01-10T19:09:50.714Z,5.53
2023-01-10T19:12:19.904Z,5.53
2023-01-10T19:14:49.438Z,5.47
2023-01-10T19:17:18.578Z,5.45
2023-01-10T19:19:48.075Z,5.49
2023-01-10T19:22:19.922Z,5.46
2023-01-10T19:24:49.516Z,5.47
2023-01-10T19:27:19.609Z,5.47
2023-01-10T19:29:49.976Z,5.43
2023-01-10T19:32:19.462Z,5.39
2023-01-10T19:34:49.044Z,5.44
2023-01-10T19:37:19.789Z,5.40
2023-01-10T19:39:49.191Z,5.39
2023-01-10T19:42:18.283Z,5.41
2023-01-10T19:44:48.052Z,5.42
2023-01-10T19:47:17.452Z,5.39
2023-01-10T19:49:46.879Z,5.39
2023-01-10T19:52:16.179Z,5.37
2023-01-10T19:54:48.333Z,5.35
2023-01-10T19:57:17.765Z,5.37
2023-01-10T19:59:51.887Z,5.39
2023-01-10T20:02:21.187Z,5.39
2023-01-10T20:04:50.738Z,5.38
2023-01-10T20:07:19.878Z,5.37
2023-01-10T20:09:50.992Z,5.34
2023-01-10T20:12:20.123Z,5.31
2023-01-10T20:14:51.719Z,5.37
2023-01-10T20:17:21.409Z,5.40
2023-01-10T20:19:51.963Z,5.37
2023-01-10T20:22:21.098Z,5.36
2023-01-10T20:24:51.963Z,5.34
2023-01-10T20:27:21.135Z,5.34
2023-01-10T20:29:50.567Z,5.33
2023-01-10T20:32:20.185Z,5.34
2023-01-10T20:34:49.784Z,5.34
2023-01-10T20:37:19.367Z,5.33
2023-01-10T20:39:50.283Z,5.32
2023-01-10T20:42:19.383Z,5.29
2023-01-10T20:44:48.891Z,5.27
2023-01-10T20:47:18.766Z,5.30
2023-01-10T20:49:48.703Z,5.32
2023-01-10T20:52:18.077Z,5.30
2023-01-10T20:54:48.837Z,5.32
2023-01-10T20:57:19.356Z,5.33
2023-01-10T20:59:48.759Z,5.35
2023-01-10T21:02:17.822Z,5.37
2023-01-10T21:04:49.699Z,5.36
2023-01-10T21:07:19.587Z,5.38
2023-01-10T21:09:49.082Z,5.37
2023-01-10T21:12:23.167Z,5.32
2023-01-10T21:14:53.773Z,5.32
2023-01-10T21:17:23.075Z,5.31
2023-01-10T21:19:52.510Z,5.27
2023-01-10T21:22:21.564Z,5.25
2023-01-10T21:24:52.383Z,5.24
2023-01-10T21:27:22.866Z,5.24
2023-01-10T21:29:52.685Z,5.20
2023-01-10T21:32:21.709Z,5.21
2023-01-10T21:34:51.106Z,5.13
2023-01-10T21:37:20.471Z,5.09
2023-01-10T21:39:49.973Z,5.08
2023-01-10T21:42:36.000Z,5.06
2023-01-10T21:45:08.269Z,5.04
2023-01-10T21:47:38.568Z,5.06
2023-01-10T21:50:10.950Z,5.01
2023-01-10T21:52:40.591Z,4.96
2023-01-10T21:55:11.409Z,4.92
2023-01-10T21:57:40.517Z,4.83
2023-01-10T22:00:12.785Z,4.84
2023-01-10T22:02:42.374Z,4.78
2023-01-10T22:05:12.387Z,4.71
2023-01-10T22:07:41.668Z,4.63
2023-01-10T22:10:12.181Z,4.67
2023-01-10T22:12:41.069Z,4.68
2023-01-10T22:15:13.325Z,4.70
2023-01-10T22:17:42.516Z,4.73
2023-01-10T22:20:12.813Z,4.74
2023-01-10T22:22:41.860Z,4.73
2023-01-10T22:25:11.405Z,4.75
2023-01-10T22:27:41.231Z,4.75
2023-01-10T22:30:14.103Z,4.77
2023-01-10T22:32:43.291Z,4.71
2023-01-10T22:35:13.799Z,4.68
2023-01-10T22:37:42.684Z,4.59
2023-01-10T22:40:12.967Z,4.59
2023-01-10T22:42:42.043Z,4.60
2023-01-10T22:45:13.587Z,4.64
2023-01-10T22:47:42.612Z,4.68
2023-01-10T22:50:12.632Z,4.66
2023-01-10T22:52:41.796Z,4.68
2023-01-10T22:55:11.272Z,4.70
2023-01-10T22:57:47.181Z,4.69
2023-01-10T23:00:19.137Z,4.68
2023-01-10T23:02:48.313Z,4.65
2023-01-10T23:05:17.898Z,4.67
2023-01-10T23:07:46.924Z,4.64
2023-01-10T23:10:29.083Z,4.63
2023-01-10T23:13:02.028Z,4.64
2023-01-10T23:15:33.176Z,4.64
2023-01-10T23:18:02.327Z,4.63
2023-01-10T23:20:31.787Z,4.59
2023-01-10T23:23:00.964Z,4.57
2023-01-10T23:25:31.402Z,4.53
2023-01-10T23:28:00.573Z,4.54
2023-01-10T23:30:31.311Z,4.58
2023-01-10T23:33:00.379Z,4.58
2023-01-10T23:35:30.414Z,4.58
2023-01-10T23:37:59.539Z,4.55
2023-01-10T23:40:28.866Z,4.59
2023-01-10T23:42:58.064Z,4.54
2023-01-10T23:45:27.384Z,4.52
2023-01-10T23:47:57.872Z,4.49
2023-01-10T23:50:27.264Z,4.48
2023-01-10T23:52:56.263Z,4.48
2023-01-10T23:55:25.831Z,4.45
2023-01-10T23:57:54.844Z,4.43
